createdAt,value
2019-03-29T00:00:39.497Z,77.10
2019-03-29T00:02:47.268Z,76.84
2019-03-29T00:04:55.197Z,76.26
2019-03-29T00:07:03.968Z,76.28
2019-03-29T00:09:12.197Z,76.35
2019-03-29T00:11:20.040Z,76.31
2019-03-29T00:13:27.735Z,77.05
2019-03-29T00:15:35.663Z,76.90
2019-03-29T00:17:44.144Z,77.10
2019-03-29T00:19:51.789Z,77.52
2019-03-29T00:21:59.492Z,78.42
2019-03-29T00:24:07.435Z,78.26
2019-03-29T00:26:15.157Z,78.25
2019-03-29T00:28:22.955Z,78.20
2019-03-29T00:30:30.655Z,78.26
2019-03-29T00:32:39.621Z,78.33
2019-03-29T00:34:47.925Z,79.06
2019-03-29T00:36:56.736Z,81.50
2019-03-29T00:39:07.139Z,81.68
2019-03-29T00:41:15.021Z,80.94
2019-03-29T00:43:22.711Z,80.45
2019-03-29T00:45:30.550Z,80.00
2019-03-29T00:47:38.461Z,79.77
2019-03-29T00:49:46.321Z,79.32
2019-03-29T00:51:54.019Z,78.65
2019-03-29T00:54:02.080Z,78.06
2019-03-29T00:56:10.136Z,77.76
2019-03-29T00:58:18.069Z,77.38
2019-03-29T01:00:26.049Z,77.47
2019-03-29T01:02:33.772Z,77.49
2019-03-29T01:04:41.513Z,77.39
2019-03-29T01:06:49.276Z,77.32
2019-03-29T01:08:57.009Z,77.32
2019-03-29T01:11:04.770Z,77.29
2019-03-29T01:13:12.465Z,77.25
2019-03-29T01:15:20.216Z,77.23
2019-03-29T01:17:27.991Z,77.07
2019-03-29T01:19:35.979Z,76.82
2019-03-29T01:21:43.802Z,76.80
2019-03-29T01:23:51.501Z,76.70
2019-03-29T01:25:59.088Z,76.51
2019-03-29T01:28:06.881Z,76.35
2019-03-29T01:30:14.814Z,76.55
2019-03-29T01:32:22.507Z,76.46
2019-03-29T01:34:30.670Z,76.55
2019-03-29T01:36:38.426Z,76.44
2019-03-29T01:38:46.168Z,76.18
2019-03-29T01:40:55.057Z,75.84
2019-03-29T01:43:02.827Z,75.07
2019-03-29T01:45:11.299Z,75.49
2019-03-29T01:47:19.041Z,75.71
2019-03-29T01:49:26.870Z,75.68
2019-03-29T01:51:34.570Z,75.80
2019-03-29T01:53:42.391Z,75.77
2019-03-29T01:55:50.159Z,76.03
2019-03-29T01:57:58.926Z,75.99
2019-03-29T02:00:09.066Z,75.88
2019-03-29T02:02:17.059Z,76.17
2019-03-29T02:04:24.653Z,76.11
2019-03-29T02:06:32.715Z,76.32
2019-03-29T02:08:40.408Z,76.62
2019-03-29T02:10:49.428Z,76.55
2019-03-29T02:12:57.276Z,76.66
2019-03-29T02:15:08.118Z,76.90
2019-03-29T02:17:15.711Z,77.09
2019-03-29T02:19:23.432Z,77.08
2019-03-29T02:21:31.501Z,77.41
2019-03-29T02:23:39.267Z,77.89
2019-03-29T02:25:47.028Z,80.19
2019-03-29T02:27:54.825Z,79.79
2019-03-29T02:30:04.250Z,80.58
2019-03-29T02:32:12.645Z,81.02
2019-03-29T02:34:20.423Z,80.68
2019-03-29T02:36:28.114Z,80.41
2019-03-29T02:38:47.502Z,80.31
2019-03-29T02:40:45.592Z,80.31
2019-03-29T02:42:53.799Z,80.72
2019-03-29T02:45:03.396Z,80.58
2019-03-29T02:47:10.883Z,80.42
2019-03-29T02:49:18.579Z,80.11
2019-03-29T02:51:26.354Z,80.58
2019-03-29T02:53:34.151Z,82.00
2019-03-29T02:55:41.819Z,82.33
2019-03-29T02:57:49.609Z,82.36
2019-03-29T02:59:57.315Z,82.92
2019-03-29T03:02:05.496Z,84.48
2019-03-29T03:04:13.233Z,84.21
2019-03-29T03:06:21.099Z,84.40
2019-03-29T03:08:32.702Z,85.37
2019-03-29T03:10:38.290Z,86.02
2019-03-29T03:12:46.138Z,87.22
2019-03-29T03:14:54.014Z,87.57
2019-03-29T03:17:01.776Z,87.37
2019-03-29T03:19:09.602Z,86.60
2019-03-29T03:21:17.370Z,86.13
2019-03-29T03:23:25.161Z,85.58
2019-03-29T03:25:33.008Z,85.49
2019-03-29T03:27:40.989Z,85.00
2019-03-29T03:29:48.922Z,84.60
2019-03-29T03:31:56.622Z,84.17
2019-03-29T03:34:04.329Z,83.73
2019-03-29T03:36:12.277Z,83.39
2019-03-29T03:38:20.129Z,83.04
2019-03-29T03:40:27.786Z,82.79
2019-03-29T03:42:35.728Z,82.15
2019-03-29T03:44:43.552Z,81.24
2019-03-29T03:46:52.506Z,80.55
2019-03-29T03:49:00.292Z,80.36
2019-03-29T03:51:08.264Z,81.32
2019-03-29T03:53:16.078Z,81.95
2019-03-29T03:55:23.903Z,83.59
2019-03-29T03:57:33.296Z,84.38
2019-03-29T03:59:41.969Z,85.50
2019-03-29T04:01:49.708Z,85.96
2019-03-29T04:03:57.351Z,86.61
2019-03-29T04:06:05.282Z,87.70
2019-03-29T04:08:13.013Z,87.64
2019-03-29T04:10:20.707Z,87.25
2019-03-29T04:12:28.572Z,87.00
2019-03-29T04:14:36.528Z,86.79
2019-03-29T04:16:44.223Z,86.11
2019-03-29T04:18:51.924Z,85.81
2019-03-29T04:20:59.726Z,85.42
2019-03-29T04:23:07.759Z,84.92
2019-03-29T04:25:15.445Z,84.18
2019-03-29T04:27:23.075Z,83.31
2019-03-29T04:29:30.912Z,82.94
2019-03-29T04:31:38.578Z,82.60
2019-03-29T04:33:46.299Z,82.02
2019-03-29T04:35:53.955Z,81.49
2019-03-29T04:38:02.626Z,80.99
2019-03-29T04:40:10.698Z,80.48
2019-03-29T04:42:18.471Z,80.28
2019-03-29T04:44:26.177Z,80.19
2019-03-29T04:46:34.681Z,80.26
2019-03-29T04:48:42.439Z,80.37
2019-03-29T04:50:50.128Z,82.27
2019-03-29T04:52:57.848Z,84.02
2019-03-29T04:55:07.485Z,83.63
2019-03-29T04:57:15.177Z,83.74
2019-03-29T04:59:22.947Z,83.68
2019-03-29T05:01:30.856Z,86.04
2019-03-29T05:03:38.655Z,87.56
2019-03-29T05:05:46.384Z,88.17
2019-03-29T05:07:54.151Z,88.19
2019-03-29T05:10:01.985Z,88.13
2019-03-29T05:12:09.915Z,88.06
2019-03-29T05:14:17.800Z,87.98
2019-03-29T05:16:26.700Z,87.54
2019-03-29T05:18:34.522Z,87.06
2019-03-29T05:20:42.124Z,87.15
2019-03-29T05:22:49.894Z,87.06
2019-03-29T05:24:57.741Z,87.04
2019-03-29T05:27:05.583Z,86.68
2019-03-29T05:29:13.370Z,85.94
2019-03-29T05:31:21.116Z,85.79
2019-03-29T05:33:28.945Z,85.24
2019-03-29T05:35:36.958Z,84.74
2019-03-29T05:37:46.028Z,84.46
2019-03-29T05:39:53.812Z,83.93
2019-03-29T05:42:02.674Z,83.62
2019-03-29T05:44:10.400Z,83.17
2019-03-29T05:46:18.173Z,82.84
2019-03-29T05:48:26.706Z,82.90
2019-03-29T05:50:36.795Z,82.73
2019-03-29T05:52:43.811Z,82.56
2019-03-29T05:54:51.554Z,82.59
2019-03-29T05:56:59.335Z,82.51
2019-03-29T05:59:07.171Z,82.32
2019-03-29T06:01:14.940Z,83.58
2019-03-29T06:03:22.804Z,83.38
2019-03-29T06:05:30.511Z,82.83
2019-03-29T06:07:38.285Z,82.62
2019-03-29T06:09:46.073Z,83.87
2019-03-29T06:11:54.961Z,85.12
2019-03-29T06:14:02.834Z,85.44
2019-03-29T06:16:10.630Z,86.24
2019-03-29T06:18:18.321Z,86.07
2019-03-29T06:20:25.982Z,85.74
2019-03-29T06:22:33.737Z,85.79
2019-03-29T06:24:41.533Z,85.49
2019-03-29T06:26:49.343Z,85.49
2019-03-29T06:28:57.735Z,85.12
2019-03-29T06:31:05.670Z,85.97
2019-03-29T06:33:13.379Z,85.66
2019-03-29T06:35:21.146Z,85.40
2019-03-29T06:37:29.948Z,85.24
2019-03-29T06:39:38.068Z,85.60
2019-03-29T06:41:45.853Z,84.57
2019-03-29T06:43:53.694Z,85.12
2019-03-29T06:46:01.453Z,83.11
2019-03-29T06:48:09.179Z,84.33
2019-03-29T06:50:18.066Z,84.87
2019-03-29T06:52:25.767Z,85.06
2019-03-29T06:54:33.650Z,84.99
2019-03-29T06:56:41.591Z,84.60
2019-03-29T06:58:49.293Z,83.39
2019-03-29T07:00:56.929Z,84.05
2019-03-29T07:03:04.903Z,83.51
2019-03-29T07:05:12.727Z,84.64
2019-03-29T07:07:20.491Z,84.65
2019-03-29T07:09:28.278Z,84.31
2019-03-29T07:11:39.424Z,83.34
2019-03-29T07:13:56.680Z,82.93
2019-03-29T07:15:54.889Z,81.70
2019-03-29T07:18:02.579Z,82.07
2019-03-29T07:20:10.811Z,81.70
2019-03-29T07:22:18.399Z,81.23
2019-03-29T07:24:26.194Z,81.41
2019-03-29T07:26:33.991Z,81.87
2019-03-29T07:28:41.863Z,80.19
2019-03-29T07:30:49.675Z,80.22
2019-03-29T07:52:07.212Z,72.97
2019-03-29T07:54:15.039Z,73.41
2019-03-29T07:56:22.726Z,73.23
2019-03-29T07:58:32.147Z,73.74
2019-03-29T08:00:39.835Z,73.17
2019-03-29T08:02:47.525Z,74.01
2019-03-29T08:04:55.231Z,73.20
2019-03-29T08:07:02.915Z,73.20
2019-03-29T08:09:21.712Z,72.22
2019-03-29T08:11:26.432Z,70.46
2019-03-29T08:13:30.496Z,71.45
2019-03-29T08:15:38.199Z,71.13
2019-03-29T08:17:46.375Z,71.26
2019-03-29T08:20:13.340Z,71.02
2019-03-29T08:22:03.424Z,69.97
2019-03-29T08:24:11.203Z,69.41
2019-03-29T08:26:18.953Z,67.86
2019-03-29T08:28:26.707Z,67.04
2019-03-29T08:30:34.414Z,66.59
2019-03-29T08:32:42.235Z,67.89
2019-03-29T08:34:50.058Z,67.19
2019-03-29T08:36:57.768Z,67.27
2019-03-29T08:39:10.185Z,65.70
2019-03-29T08:41:17.221Z,66.09
2019-03-29T08:43:24.921Z,66.28
2019-03-29T08:45:32.675Z,65.63
2019-03-29T08:47:40.262Z,66.75
2019-03-29T08:49:47.970Z,66.45
2019-03-29T08:51:55.719Z,67.13
2019-03-29T08:54:04.361Z,67.44
2019-03-29T08:56:13.423Z,66.34
2019-03-29T08:58:21.007Z,65.42
2019-03-29T09:00:32.980Z,64.65
2019-03-29T09:02:40.589Z,64.26
2019-03-29T09:04:48.399Z,64.66
2019-03-29T09:06:56.074Z,63.51
2019-03-29T09:09:04.500Z,63.14
2019-03-29T09:11:12.177Z,64.05
2019-03-29T09:13:20.130Z,63.78
2019-03-29T09:15:28.006Z,63.50
2019-03-29T09:17:35.678Z,63.26
2019-03-29T09:19:44.434Z,63.72
2019-03-29T09:21:52.199Z,63.67
2019-03-29T09:24:00.114Z,63.56
2019-03-29T09:26:07.863Z,62.61
2019-03-29T09:28:15.572Z,61.93
2019-03-29T09:30:23.249Z,62.67
2019-03-29T09:32:30.930Z,64.46
2019-03-29T09:34:41.147Z,60.78
2019-03-29T09:36:48.776Z,61.44
2019-03-29T09:38:56.458Z,62.60
2019-03-29T09:41:04.164Z,62.02
2019-03-29T09:43:11.984Z,62.65
2019-03-29T09:45:19.727Z,61.32
2019-03-29T09:47:27.601Z,61.83
2019-03-29T09:49:35.314Z,61.18
2019-03-29T09:51:42.989Z,60.23
2019-03-29T09:53:50.612Z,61.78
2019-03-29T09:55:58.340Z,61.98
2019-03-29T09:58:06.076Z,60.64
2019-03-29T10:00:21.058Z,59.09
2019-03-29T10:02:23.485Z,60.13
2019-03-29T10:04:31.163Z,61.23
2019-03-29T10:06:38.994Z,61.03
2019-03-29T10:08:46.821Z,59.28
2019-03-29T10:10:55.685Z,59.18
2019-03-29T10:13:03.481Z,58.86
2019-03-29T10:15:11.311Z,58.15
2019-03-29T10:17:19.005Z,59.90
2019-03-29T10:19:26.751Z,57.85
2019-03-29T10:21:34.435Z,58.78
2019-03-29T10:23:42.134Z,60.30
2019-03-29T10:25:50.004Z,57.75
2019-03-29T10:27:57.823Z,57.73
2019-03-29T10:30:09.074Z,57.38
2019-03-29T10:32:16.791Z,56.90
2019-03-29T10:34:24.513Z,58.22
2019-03-29T10:36:32.306Z,57.56
2019-03-29T10:38:40.217Z,56.30
2019-03-29T10:40:47.908Z,56.87
2019-03-29T10:42:58.064Z,58.33
2019-03-29T10:45:05.984Z,58.27
2019-03-29T10:47:13.574Z,58.60
2019-03-29T10:49:21.270Z,58.25
2019-03-29T10:51:29.003Z,58.40
2019-03-29T10:53:36.691Z,57.25
2019-03-29T10:55:44.389Z,54.83
2019-03-29T10:57:52.971Z,56.64
2019-03-29T11:00:00.652Z,57.21
2019-03-29T11:02:09.770Z,56.95
2019-03-29T11:04:17.585Z,55.04
2019-03-29T11:06:25.274Z,55.19
2019-03-29T11:08:32.858Z,56.02
2019-03-29T11:10:41.609Z,56.10
2019-03-29T11:12:49.195Z,55.87
2019-03-29T11:14:56.883Z,57.16
2019-03-29T11:17:04.645Z,55.99
2019-03-29T11:19:12.436Z,55.64
2019-03-29T11:21:20.180Z,57.11
2019-03-29T11:23:27.898Z,56.66
2019-03-29T11:25:35.583Z,56.80
2019-03-29T11:27:43.265Z,55.94
2019-03-29T11:29:50.970Z,55.41
2019-03-29T11:31:58.722Z,56.15
2019-03-29T11:34:07.275Z,55.57
2019-03-29T11:36:15.241Z,55.46
2019-03-29T11:38:23.050Z,56.19
2019-03-29T11:40:30.634Z,57.74
2019-03-29T11:42:38.359Z,56.78
2019-03-29T11:44:46.040Z,56.48
2019-03-29T11:46:53.874Z,57.52
2019-03-29T11:49:01.586Z,57.63
2019-03-29T11:51:19.217Z,57.66
2019-03-29T11:53:20.012Z,58.18
2019-03-29T11:55:27.955Z,57.32
2019-03-29T11:57:35.804Z,56.27
2019-03-29T11:59:44.350Z,56.61
2019-03-29T12:01:52.127Z,57.02
2019-03-29T12:03:59.811Z,56.61
2019-03-29T12:06:07.725Z,57.32
2019-03-29T12:08:15.436Z,55.93
2019-03-29T12:10:23.133Z,56.02
2019-03-29T12:12:30.891Z,57.04
2019-03-29T12:14:38.620Z,56.43
2019-03-29T12:16:46.398Z,55.08
2019-03-29T12:18:54.078Z,56.37
2019-03-29T12:21:03.007Z,56.43
2019-03-29T12:23:10.782Z,56.93
2019-03-29T12:25:18.433Z,57.22
2019-03-29T12:27:26.213Z,56.33
2019-03-29T12:29:33.992Z,58.12
2019-03-29T12:31:41.678Z,58.10
2019-03-29T12:33:49.393Z,57.41
2019-03-29T12:35:57.079Z,57.34
2019-03-29T12:38:05.183Z,57.71
2019-03-29T12:40:13.266Z,58.23
2019-03-29T12:42:21.040Z,57.34
2019-03-29T12:44:28.729Z,57.37
2019-03-29T12:46:36.584Z,57.43
2019-03-29T12:48:44.340Z,58.21
2019-03-29T12:50:52.088Z,57.08
2019-03-29T12:52:59.826Z,56.72
2019-03-29T12:55:07.919Z,57.21
2019-03-29T12:57:15.607Z,56.94
2019-03-29T12:59:23.385Z,56.72
2019-03-29T13:01:39.345Z,57.93
2019-03-29T13:03:41.348Z,57.17
2019-03-29T13:05:49.067Z,57.88
2019-03-29T13:07:56.750Z,57.41
2019-03-29T13:10:09.603Z,57.70
2019-03-29T13:12:17.390Z,57.01
2019-03-29T13:14:25.091Z,56.55
2019-03-29T13:16:32.767Z,56.75
2019-03-29T13:18:40.485Z,56.60
2019-03-29T13:20:48.244Z,56.77
2019-03-29T13:22:55.901Z,56.56
2019-03-29T13:25:07.207Z,57.43
2019-03-29T13:27:13.730Z,57.37
2019-03-29T13:29:21.579Z,56.71
2019-03-29T13:31:29.351Z,56.94
2019-03-29T13:33:38.166Z,56.93
2019-03-29T13:35:46.123Z,56.70
2019-03-29T13:37:53.835Z,56.99
2019-03-29T13:40:01.515Z,56.96
2019-03-29T13:42:10.654Z,57.40
2019-03-29T13:44:24.068Z,58.07
2019-03-29T13:46:27.930Z,57.47
2019-03-29T13:48:35.655Z,57.96
2019-03-29T13:50:43.376Z,57.51
2019-03-29T13:52:51.117Z,57.51
2019-03-29T13:54:58.859Z,57.87
2019-03-29T13:57:06.566Z,57.27
2019-03-29T13:59:14.317Z,56.84
2019-03-29T14:01:21.997Z,57.50
2019-03-29T14:03:30.625Z,57.32
2019-03-29T14:05:38.589Z,57.63
2019-03-29T14:07:46.366Z,57.39
2019-03-29T14:09:54.076Z,57.17
2019-03-29T14:12:01.899Z,57.99
2019-03-29T14:14:09.655Z,57.85
2019-03-29T14:16:17.384Z,58.83
2019-03-29T14:18:25.367Z,58.92
2019-03-29T14:20:36.185Z,58.66
2019-03-29T14:22:43.802Z,59.17
2019-03-29T14:24:54.072Z,58.73
2019-03-29T14:27:00.915Z,58.82
2019-03-29T14:29:08.699Z,59.59
2019-03-29T14:31:18.141Z,60.30
2019-03-29T14:33:25.725Z,60.38
2019-03-29T14:35:33.517Z,60.02
2019-03-29T14:37:41.210Z,60.19
2019-03-29T14:39:48.901Z,60.26
2019-03-29T14:41:56.648Z,59.22
2019-03-29T14:44:05.515Z,58.93
2019-03-29T14:46:13.200Z,59.91
2019-03-29T14:48:21.018Z,59.71
2019-03-29T14:50:28.846Z,59.10
2019-03-29T14:52:36.699Z,59.46
2019-03-29T14:54:44.411Z,59.23
2019-03-29T14:56:52.297Z,59.23
2019-03-29T14:59:00.116Z,59.11
2019-03-29T15:01:07.861Z,59.47
2019-03-29T15:03:15.979Z,59.65
2019-03-29T15:05:23.690Z,59.98
2019-03-29T15:07:31.369Z,60.44
2019-03-29T15:09:39.067Z,61.03
2019-03-29T15:11:46.760Z,61.29
2019-03-29T15:13:54.453Z,61.25
2019-03-29T15:16:02.211Z,61.38
2019-03-29T15:18:10.088Z,61.44
2019-03-29T15:20:17.794Z,61.58
2019-03-29T15:22:25.486Z,61.55
2019-03-29T15:24:33.238Z,61.85
2019-03-29T15:26:40.956Z,61.97
2019-03-29T15:28:48.692Z,61.62
2019-03-29T15:30:56.383Z,61.12
2019-03-29T15:33:04.168Z,61.40
2019-03-29T15:35:12.165Z,61.25
2019-03-29T15:37:19.855Z,61.23
2019-03-29T15:39:27.714Z,61.87
2019-03-29T15:41:35.659Z,61.76
2019-03-29T15:43:43.602Z,61.12
2019-03-29T15:45:51.551Z,61.27
2019-03-29T15:47:59.341Z,60.99
2019-03-29T15:50:08.243Z,61.67
2019-03-29T15:52:15.994Z,61.62
2019-03-29T15:54:23.582Z,62.47
2019-03-29T15:56:31.367Z,61.99
2019-03-29T15:58:40.232Z,62.64
2019-03-29T16:00:47.986Z,62.51
2019-03-29T16:02:55.761Z,62.87
2019-03-29T16:05:03.740Z,62.86
2019-03-29T16:07:12.429Z,63.22
2019-03-29T16:09:20.213Z,62.93
2019-03-29T16:11:28.138Z,63.13
2019-03-29T16:13:35.727Z,63.52
2019-03-29T16:15:43.504Z,63.32
2019-03-29T16:17:51.223Z,63.51
2019-03-29T16:19:58.985Z,63.82
2019-03-29T16:22:06.666Z,64.01
2019-03-29T16:24:14.487Z,64.18
2019-03-29T16:26:22.176Z,64.24
2019-03-29T16:28:29.751Z,64.39
2019-03-29T16:30:37.551Z,64.34
2019-03-29T16:32:45.502Z,65.06
2019-03-29T16:34:53.190Z,64.75
2019-03-29T16:37:00.883Z,64.46
2019-03-29T16:39:09.325Z,65.09
2019-03-29T16:41:17.010Z,64.82
2019-03-29T16:43:24.732Z,64.80
2019-03-29T16:45:46.838Z,64.86
2019-03-29T16:47:42.650Z,64.91
2019-03-29T16:49:50.343Z,65.09
2019-03-29T16:51:58.017Z,65.14
2019-03-29T16:54:06.022Z,65.23
2019-03-29T16:56:13.743Z,65.00
2019-03-29T16:58:21.414Z,65.98
2019-03-29T17:00:28.991Z,65.90
2019-03-29T17:02:36.800Z,66.13
2019-03-29T17:04:44.375Z,65.81
2019-03-29T17:06:52.144Z,65.82
2019-03-29T17:08:59.841Z,66.14
2019-03-29T17:11:07.413Z,66.36
2019-03-29T17:13:15.086Z,66.67
2019-03-29T17:15:22.794Z,66.52
2019-03-29T17:17:30.463Z,66.46
2019-03-29T17:19:38.143Z,66.75
2019-03-29T17:21:46.010Z,66.61
2019-03-29T17:23:53.779Z,66.15
2019-03-29T17:26:01.423Z,66.18
2019-03-29T17:28:10.206Z,66.13
2019-03-29T17:30:22.592Z,66.05
2019-03-29T17:32:30.260Z,65.97
2019-03-29T17:34:38.049Z,66.18
2019-03-29T17:36:45.626Z,66.28
2019-03-29T17:38:53.303Z,66.15
2019-03-29T17:41:02.801Z,66.15
2019-03-29T17:43:10.695Z,66.08
2019-03-29T17:45:18.435Z,66.39
2019-03-29T17:47:26.204Z,66.62
2019-03-29T17:49:33.876Z,66.18
2019-03-29T17:51:41.616Z,65.91
2019-03-29T17:53:49.436Z,66.08
2019-03-29T17:55:57.470Z,66.53
2019-03-29T17:58:05.528Z,66.70
2019-03-29T18:00:15.405Z,66.73
2019-03-29T18:02:23.512Z,67.14
2019-03-29T18:04:31.160Z,67.15
2019-03-29T18:06:38.921Z,66.87
2019-03-29T18:08:46.661Z,66.45
2019-03-29T18:10:55.271Z,65.72
2019-03-29T18:13:02.999Z,66.05
2019-03-29T18:15:11.799Z,66.24
2019-03-29T18:17:19.441Z,66.12
2019-03-29T18:19:27.229Z,65.57
2019-03-29T18:21:34.899Z,65.36
2019-03-29T18:23:45.630Z,65.58
2019-03-29T18:25:54.594Z,66.06
2019-03-29T18:28:02.384Z,66.17
2019-03-29T18:30:12.241Z,66.06
2019-03-29T18:32:20.906Z,66.48
2019-03-29T18:34:28.653Z,65.93
2019-03-29T18:36:36.899Z,66.30
2019-03-29T18:38:47.310Z,66.31
2019-03-29T18:40:55.145Z,66.91
2019-03-29T18:43:03.178Z,67.33
2019-03-29T18:45:12.831Z,67.39
2019-03-29T18:47:20.472Z,67.40
2019-03-29T18:49:28.124Z,67.49
2019-03-29T18:51:35.888Z,67.07
2019-03-29T18:53:43.564Z,66.80
2019-03-29T18:55:51.342Z,67.59
2019-03-29T18:57:59.135Z,67.64
2019-03-29T19:00:08.725Z,68.15
2019-03-29T19:02:16.377Z,68.32
2019-03-29T19:04:24.145Z,68.21
2019-03-29T19:06:32.170Z,67.99
2019-03-29T19:08:39.847Z,67.89
2019-03-29T19:10:47.555Z,67.72
2019-03-29T19:12:55.617Z,67.79
2019-03-29T19:15:03.830Z,67.92
2019-03-29T19:17:11.561Z,68.70
2019-03-29T19:19:19.422Z,68.96
2019-03-29T19:21:27.253Z,68.84
2019-03-29T19:23:35.007Z,69.20
2019-03-29T19:25:42.820Z,69.07
2019-03-29T19:27:50.495Z,69.36
2019-03-29T19:29:58.209Z,69.80
2019-03-29T19:32:05.986Z,69.90
2019-03-29T19:34:13.732Z,69.81
2019-03-29T19:36:21.425Z,69.48
2019-03-29T19:38:29.313Z,69.46
2019-03-29T19:40:37.004Z,69.17
2019-03-29T19:42:44.764Z,68.96
2019-03-29T19:44:52.539Z,68.83
2019-03-29T19:47:12.825Z,68.59
2019-03-29T19:49:09.690Z,68.68
2019-03-29T19:51:18.437Z,68.87
2019-03-29T19:53:26.248Z,68.89
2019-03-29T19:55:34.070Z,69.04
2019-03-29T19:57:41.801Z,69.11
2019-03-29T19:59:49.475Z,69.11
2019-03-29T20:01:57.266Z,69.28
2019-03-29T20:04:09.456Z,69.40
2019-03-29T20:06:14.690Z,69.77
2019-03-29T20:08:22.383Z,70.08
2019-03-29T20:10:30.132Z,70.49
2019-03-29T20:12:37.940Z,70.76
2019-03-29T20:14:46.594Z,70.91
2019-03-29T20:16:55.397Z,70.69
2019-03-29T20:19:03.130Z,70.56
2019-03-29T20:21:10.842Z,70.52
2019-03-29T20:23:18.587Z,70.70
2019-03-29T20:25:26.772Z,70.57
2019-03-29T20:27:35.607Z,70.34
2019-03-29T20:29:43.304Z,70.05
2019-03-29T20:31:51.008Z,69.76
2019-03-29T20:34:00.751Z,69.82
2019-03-29T20:36:08.242Z,69.46
2019-03-29T20:38:15.940Z,69.17
2019-03-29T20:40:23.839Z,69.39
2019-03-29T20:42:32.721Z,69.77
2019-03-29T20:44:40.321Z,69.75
2019-03-29T20:46:49.239Z,69.85
2019-03-29T20:48:57.003Z,70.73
2019-03-29T20:51:04.764Z,71.20
2019-03-29T20:53:12.505Z,71.70
2019-03-29T20:55:20.197Z,73.06
2019-03-29T20:57:27.878Z,72.73
2019-03-29T20:59:36.795Z,72.59
2019-03-29T21:01:44.474Z,72.24
2019-03-29T21:03:52.153Z,71.70
2019-03-29T21:06:01.057Z,71.45
2019-03-29T21:10:15.713Z,70.96
2019-03-29T21:12:23.327Z,70.44
2019-03-29T21:14:31.015Z,69.83
2019-03-29T21:16:40.673Z,69.10
2019-03-29T21:18:48.401Z,68.43
2019-03-29T21:20:57.355Z,67.90
2019-03-29T21:23:05.220Z,68.12
2019-03-29T21:25:13.191Z,68.40
2019-03-29T21:27:20.963Z,68.62
2019-03-29T21:29:29.638Z,69.01
2019-03-29T21:31:37.450Z,69.28
2019-03-29T21:33:45.312Z,69.49
2019-03-29T21:35:52.997Z,69.80
2019-03-29T21:38:00.725Z,70.13
2019-03-29T21:40:09.822Z,70.76
2019-03-29T21:42:20.498Z,71.23
2019-03-29T21:44:28.315Z,71.60
2019-03-29T21:46:36.071Z,71.92
2019-03-29T21:48:43.766Z,72.48
2019-03-29T21:50:51.487Z,72.60
2019-03-29T21:52:59.172Z,72.44
2019-03-29T21:55:07.757Z,72.31
2019-03-29T21:57:15.487Z,72.56
2019-03-29T21:59:25.122Z,72.52
2019-03-29T22:01:32.985Z,72.40
2019-03-29T22:03:40.596Z,72.21
2019-03-29T22:05:48.352Z,73.93
2019-03-29T22:07:56.022Z,74.58
2019-03-29T22:10:06.798Z,74.21
2019-03-29T22:12:17.115Z,74.35
2019-03-29T22:14:24.871Z,73.71
2019-03-29T22:16:32.681Z,73.49
2019-03-29T22:18:41.568Z,73.41
2019-03-29T22:20:49.240Z,73.17
2019-03-29T22:22:58.174Z,73.04
2019-03-29T22:25:09.734Z,73.33
2019-03-29T22:27:17.410Z,73.27
2019-03-29T22:29:25.268Z,73.32
2019-03-29T22:31:32.946Z,73.08
2019-03-29T22:33:41.811Z,73.25
2019-03-29T22:35:49.406Z,75.62
2019-03-29T22:37:57.148Z,75.66
2019-03-29T22:40:08.020Z,75.20
2019-03-29T22:42:15.719Z,75.21
2019-03-29T22:44:23.388Z,75.35
2019-03-29T22:46:31.133Z,75.52
2019-03-29T22:48:51.576Z,75.00
2019-03-29T22:50:49.839Z,74.72
2019-03-29T22:52:57.515Z,75.26
2019-03-29T22:55:09.478Z,75.51
2019-03-29T22:57:17.231Z,75.15
2019-03-29T22:59:24.895Z,75.33
2019-03-29T23:01:37.224Z,75.48
2019-03-29T23:03:45.035Z,75.64
2019-03-29T23:05:52.784Z,75.25
2019-03-29T23:08:00.510Z,75.37
2019-03-29T23:10:09.711Z,75.59
2019-03-29T23:12:17.453Z,75.63
2019-03-29T23:14:25.231Z,75.46
2019-03-29T23:16:32.897Z,75.35
2019-03-29T23:18:40.570Z,74.52
2019-03-29T23:20:48.594Z,75.28
2019-03-29T23:22:56.400Z,74.84
2019-03-29T23:25:05.281Z,74.66
2019-03-29T23:27:13.943Z,75.12
2019-03-29T23:29:21.613Z,74.97
2019-03-29T23:31:29.254Z,74.67
2019-03-29T23:33:37.054Z,74.72
2019-03-29T23:35:44.796Z,74.81
2019-03-29T23:37:53.643Z,74.74
2019-03-29T23:40:01.394Z,74.57
2019-03-29T23:42:09.330Z,74.24
2019-03-29T23:44:17.081Z,74.21
2019-03-29T23:46:25.744Z,74.07
2019-03-29T23:48:33.489Z,74.13
2019-03-29T23:50:41.159Z,73.88
2019-03-29T23:52:48.913Z,74.41
2019-03-29T23:54:56.880Z,74.72
2019-03-29T23:57:04.576Z,75.43
2019-03-29T23:59:12.350Z,74.97
